createdAt,value
2023-02-13T00:03:27.519Z,6.10
2023-02-13T00:07:29.576Z,6.09
2023-02-13T00:11:31.668Z,6.09
2023-02-13T00:15:33.966Z,6.07
2023-02-13T00:19:36.026Z,6.04
2023-02-13T00:23:39.595Z,6.08
2023-02-13T00:27:41.767Z,6.07
2023-02-13T00:31:43.857Z,6.05
2023-02-13T00:35:45.928Z,6.04
2023-02-13T00:39:48.014Z,6.08
2023-02-13T00:43:50.263Z,6.10
2023-02-13T00:47:52.405Z,6.07
2023-02-13T00:51:57.152Z,6.09
2023-02-13T00:55:59.679Z,6.11
2023-02-13T01:00:01.966Z,6.14
2023-02-13T01:04:04.074Z,6.05
2023-02-13T01:08:06.449Z,6.02
2023-02-13T01:12:08.591Z,6.04
2023-02-13T01:16:11.120Z,6.21
2023-02-13T01:20:13.602Z,6.16
2023-02-13T01:24:15.694Z,6.12
2023-02-13T01:28:17.940Z,6.12
2023-02-13T01:32:20.256Z,6.08
2023-02-13T01:36:22.403Z,6.10
2023-02-13T01:40:24.445Z,6.08
2023-02-13T01:44:46.245Z,5.99
2023-02-13T01:48:53.433Z,6.01
2023-02-13T01:53:01.381Z,6.02
2023-02-13T01:57:15.029Z,6.02
2023-02-13T02:01:17.528Z,6.02
2023-02-13T02:05:24.222Z,6.07
2023-02-13T02:09:30.245Z,6.05
2023-02-13T02:13:32.461Z,6.07
2023-02-13T02:17:39.944Z,6.07
2023-02-13T02:21:42.092Z,6.02
2023-02-13T02:26:01.313Z,6.01
2023-02-13T02:30:12.782Z,5.96
2023-02-13T02:34:30.117Z,5.94
2023-02-13T02:38:51.841Z,5.89
2023-02-13T02:43:19.597Z,5.81
2023-02-13T02:48:02.541Z,5.82
2023-02-13T02:52:12.781Z,5.79
2023-02-13T02:56:23.286Z,5.73
2023-02-13T03:00:46.647Z,5.70
2023-02-13T03:05:29.849Z,5.64
2023-02-13T03:09:55.709Z,5.58
2023-02-13T03:14:01.541Z,5.48
2023-02-13T03:18:22.294Z,5.37
2023-02-13T03:22:31.543Z,5.27
2023-02-13T03:27:03.273Z,5.11
2023-02-13T03:31:13.794Z,4.98
2023-02-13T03:35:53.559Z,4.85
2023-02-13T03:40:19.286Z,4.70
2023-02-13T03:44:33.327Z,4.57
2023-02-13T03:48:57.924Z,4.40
2023-02-13T03:53:06.299Z,4.32
2023-02-13T03:57:30.858Z,4.20
2023-02-13T04:01:35.979Z,4.15
2023-02-13T04:05:43.768Z,4.07
2023-02-13T04:09:45.775Z,3.99
2023-02-13T04:14:00.523Z,3.94
2023-02-13T04:18:11.030Z,3.88
2023-02-13T04:22:13.477Z,3.76
2023-02-13T04:26:19.779Z,3.65
2023-02-13T04:30:21.943Z,3.55
2023-02-13T04:34:23.970Z,3.42
2023-02-13T04:38:26.028Z,3.35
2023-02-13T04:42:28.069Z,3.30
2023-02-13T04:46:30.435Z,3.26
2023-02-13T04:50:32.524Z,3.15
2023-02-13T04:54:34.573Z,3.07
2023-02-13T04:58:36.766Z,3.05
2023-02-13T05:02:39.701Z,3.07
2023-02-13T05:06:42.430Z,2.97
2023-02-13T05:10:44.512Z,2.88
2023-02-13T05:14:46.539Z,2.86
2023-02-13T05:18:48.547Z,2.83
2023-02-13T05:23:12.219Z,2.71
2023-02-13T05:27:14.355Z,2.53
2023-02-13T05:31:16.573Z,2.42
2023-02-13T05:35:19.264Z,2.33
2023-02-13T05:39:21.790Z,2.31
2023-02-13T05:43:23.749Z,2.18
2023-02-13T05:47:25.796Z,2.10
2023-02-13T05:51:27.871Z,2.10
2023-02-13T05:55:29.874Z,2.02
2023-02-13T05:59:31.884Z,1.97
2023-02-13T06:03:34.159Z,1.88
2023-02-13T06:07:36.226Z,1.79
2023-02-13T06:11:38.273Z,1.56
2023-02-13T06:15:40.670Z,1.48
2023-02-13T06:19:42.690Z,1.48
2023-02-13T06:23:44.865Z,1.43
2023-02-13T06:27:47.512Z,1.38
2023-02-13T06:31:49.599Z,1.18
2023-02-13T06:35:51.736Z,1.18
2023-02-13T06:39:53.802Z,1.14
2023-02-13T06:43:55.795Z,0.97
2023-02-13T06:47:57.795Z,0.89
2023-02-13T06:51:59.811Z,0.93
2023-02-13T06:56:06.264Z,0.90
2023-02-13T07:00:09.063Z,0.95
2023-02-13T07:04:11.073Z,1.01
2023-02-13T07:08:13.536Z,1.10
2023-02-13T07:12:15.570Z,1.06
2023-02-13T07:16:17.729Z,1.15
2023-02-13T07:20:19.903Z,1.12
2023-02-13T07:24:21.910Z,1.13
2023-02-13T07:28:24.001Z,1.33
2023-02-13T07:32:26.111Z,1.55
2023-02-13T07:36:28.672Z,1.65
2023-02-13T07:40:30.719Z,1.69
2023-02-13T07:44:33.025Z,1.61
2023-02-13T07:48:35.123Z,1.56
2023-02-13T07:52:37.934Z,1.61
2023-02-13T07:56:40.051Z,1.81
2023-02-13T08:00:42.122Z,1.95
2023-02-13T08:04:47.640Z,2.09
2023-02-13T08:09:09.750Z,2.31
2023-02-13T08:13:13.958Z,2.46
2023-02-13T08:17:15.955Z,2.62
2023-02-13T08:21:17.975Z,2.76
2023-02-13T08:25:20.243Z,2.93
2023-02-13T08:29:22.364Z,3.08
2023-02-13T08:33:24.995Z,3.28
2023-02-13T08:37:27.019Z,3.49
2023-02-13T08:41:29.033Z,3.69
2023-02-13T08:45:32.398Z,3.92
2023-02-13T08:49:34.451Z,4.11
2023-02-13T08:53:36.981Z,4.31
2023-02-13T08:57:39.011Z,4.45
2023-02-13T09:01:41.555Z,4.58
2023-02-13T09:05:43.878Z,4.72
2023-02-13T09:09:45.933Z,4.88
2023-02-13T09:13:48.324Z,5.01
2023-02-13T09:17:51.165Z,5.15
2023-02-13T09:21:53.195Z,5.26
2023-02-13T09:25:55.358Z,5.33
2023-02-13T09:29:57.504Z,5.45
2023-02-13T09:33:59.550Z,5.58
2023-02-13T09:38:01.755Z,5.67
2023-02-13T09:42:14.102Z,5.79
2023-02-13T09:46:20.964Z,5.88
2023-02-13T09:50:28.265Z,5.94
2023-02-13T09:54:32.098Z,6.08
2023-02-13T09:58:51.910Z,6.17
2023-02-13T10:02:56.884Z,6.30
2023-02-13T10:07:40.632Z,6.37
2023-02-13T10:12:08.100Z,6.51
2023-02-13T10:16:36.892Z,6.66
2023-02-13T10:20:50.616Z,6.80
2023-02-13T10:25:13.008Z,6.85
2023-02-13T10:29:52.277Z,6.96
2023-02-13T10:34:02.686Z,7.06
2023-02-13T10:38:15.702Z,7.12
2023-02-13T10:42:43.726Z,7.21
2023-02-13T10:47:05.722Z,7.31
2023-02-13T10:51:40.437Z,7.38
2023-02-13T10:56:11.018Z,7.52
2023-02-13T11:00:18.760Z,7.61
2023-02-13T11:04:20.925Z,7.69
2023-02-13T11:08:33.430Z,7.77
2023-02-13T11:12:35.494Z,7.84
2023-02-13T11:16:46.952Z,7.94
2023-02-13T11:21:02.513Z,8.04
2023-02-13T11:25:31.759Z,8.13
2023-02-13T11:29:35.484Z,8.24
2023-02-13T11:33:37.727Z,8.30
2023-02-13T11:37:40.517Z,8.41
2023-02-13T11:41:44.731Z,8.51
2023-02-13T11:45:46.962Z,8.62
2023-02-13T11:49:49.311Z,8.75
2023-02-13T11:53:51.418Z,8.88
2023-02-13T11:58:00.415Z,8.96
2023-02-13T12:02:03.687Z,9.05
2023-02-13T12:06:08.700Z,9.13
2023-02-13T12:10:23.036Z,9.19
2023-02-13T12:14:31.587Z,9.27
2023-02-13T12:18:38.713Z,9.34
2023-02-13T12:22:48.613Z,9.43
2023-02-13T12:26:59.548Z,9.55
2023-02-13T12:31:09.221Z,9.59
2023-02-13T12:35:41.177Z,9.59
2023-02-13T12:40:15.666Z,9.67
2023-02-13T12:44:30.049Z,9.77
2023-02-13T12:48:45.218Z,9.83
2023-02-13T12:53:17.136Z,9.88
2023-02-13T12:57:47.181Z,9.94
2023-02-13T13:02:24.807Z,9.99
2023-02-13T13:06:49.289Z,9.96
2023-02-13T13:11:09.256Z,9.96
2023-02-13T13:15:21.854Z,9.99
2023-02-13T13:19:38.844Z,9.97
2023-02-13T13:24:01.030Z,9.89
2023-02-13T13:28:16.770Z,9.88
2023-02-13T13:32:21.606Z,9.90
2023-02-13T13:36:42.308Z,9.93
2023-02-13T13:40:58.167Z,9.97
2023-02-13T13:45:20.935Z,10.02
2023-02-13T13:49:48.530Z,10.02
2023-02-13T13:53:59.664Z,9.98
2023-02-13T13:58:02.008Z,9.98
2023-02-13T14:02:19.479Z,10.01
2023-02-13T14:06:28.293Z,9.99
2023-02-13T14:10:30.261Z,9.96
2023-02-13T14:14:35.296Z,9.97
2023-02-13T14:18:38.709Z,9.96
2023-02-13T14:22:41.290Z,9.96
2023-02-13T14:26:43.359Z,9.97
2023-02-13T14:30:45.536Z,9.99
2023-02-13T14:34:59.438Z,9.91
2023-02-13T14:39:15.847Z,9.87
2023-02-13T14:43:28.651Z,9.89
2023-02-13T14:47:36.316Z,9.88
2023-02-13T14:51:46.877Z,9.84
2023-02-13T14:55:56.533Z,9.80
2023-02-13T15:00:04.333Z,9.75
2023-02-13T15:04:25.923Z,9.70
2023-02-13T15:08:33.959Z,9.67
2023-02-13T15:12:37.159Z,9.64
2023-02-13T15:16:39.532Z,9.59
2023-02-13T15:20:43.364Z,9.54
2023-02-13T15:24:47.965Z,9.52
2023-02-13T15:29:27.756Z,9.47
2023-02-13T15:33:44.371Z,9.42
2023-02-13T15:37:46.380Z,9.35
2023-02-13T15:41:51.018Z,9.28
2023-02-13T15:45:53.277Z,9.18
2023-02-13T15:49:55.963Z,9.10
2023-02-13T15:54:01.705Z,9.02
2023-02-13T15:58:04.371Z,8.92
2023-02-13T16:02:15.319Z,8.85
2023-02-13T16:06:20.277Z,8.76
2023-02-13T16:10:36.483Z,8.65
2023-02-13T16:15:02.244Z,8.54
2023-02-13T16:19:04.680Z,8.47
2023-02-13T16:23:27.101Z,8.38
2023-02-13T16:27:29.276Z,8.27
2023-02-13T16:31:31.478Z,8.13
2023-02-13T16:35:37.911Z,8.00
2023-02-13T16:39:39.997Z,7.85
2023-02-13T16:43:51.641Z,7.73
2023-02-13T16:48:03.207Z,7.58
2023-02-13T16:52:16.917Z,7.44
2023-02-13T16:56:18.991Z,7.27
2023-02-13T17:00:25.577Z,7.18
2023-02-13T17:04:27.874Z,7.03
2023-02-13T17:08:33.030Z,6.85
2023-02-13T17:12:38.034Z,6.67
2023-02-13T17:16:40.107Z,6.51
2023-02-13T17:20:44.054Z,6.30
2023-02-13T17:24:46.134Z,6.08
2023-02-13T17:28:48.112Z,5.86
2023-02-13T17:32:57.341Z,5.70
2023-02-13T17:36:59.517Z,5.64
2023-02-13T17:41:01.739Z,5.62
2023-02-13T17:45:04.409Z,5.51
2023-02-13T17:49:06.445Z,5.37
2023-02-13T17:53:18.895Z,5.26
2023-02-13T17:57:20.924Z,5.07
2023-02-13T18:01:22.983Z,4.99
2023-02-13T18:05:25.570Z,4.86
2023-02-13T18:09:27.631Z,4.83
2023-02-13T18:13:29.657Z,4.74
2023-02-13T18:17:31.667Z,4.63
2023-02-13T18:21:33.688Z,4.56
2023-02-13T18:25:36.158Z,4.46
2023-02-13T18:29:38.597Z,4.52
2023-02-13T18:33:40.643Z,4.56
2023-02-13T18:37:42.761Z,4.62
2023-02-13T18:41:44.857Z,4.64
2023-02-13T18:45:47.043Z,4.69
2023-02-13T18:49:49.215Z,4.75
2023-02-13T18:53:51.508Z,4.66
2023-02-13T18:57:53.613Z,4.61
2023-02-13T19:01:55.675Z,4.54
2023-02-13T19:05:58.960Z,4.39
2023-02-13T19:10:01.114Z,4.31
2023-02-13T19:14:03.243Z,4.04
2023-02-13T19:18:05.378Z,3.81
2023-02-13T19:22:07.402Z,3.68
2023-02-13T19:26:12.272Z,3.62
2023-02-13T19:30:14.529Z,3.59
2023-02-13T19:34:16.618Z,3.50
2023-02-13T19:38:19.377Z,3.39
2023-02-13T19:42:21.380Z,3.36
2023-02-13T19:46:28.781Z,3.30
2023-02-13T19:50:30.857Z,3.22
2023-02-13T19:54:34.028Z,3.10
2023-02-13T19:58:40.091Z,3.06
2023-02-13T20:02:42.198Z,3.04
2023-02-13T20:06:44.312Z,3.06
2023-02-13T20:10:46.326Z,2.99
2023-02-13T20:14:48.378Z,2.91
2023-02-13T20:18:50.609Z,2.82
2023-02-13T20:22:52.622Z,2.71
2023-02-13T20:26:56.434Z,2.53
2023-02-13T20:30:59.091Z,2.29
2023-02-13T20:35:01.331Z,2.25
2023-02-13T20:39:05.731Z,2.20
2023-02-13T20:43:07.762Z,2.01
2023-02-13T20:47:10.335Z,1.98
2023-02-13T20:51:14.679Z,2.03
2023-02-13T20:55:16.888Z,2.08
2023-02-13T20:59:19.007Z,1.98
2023-02-13T21:03:21.055Z,1.99
2023-02-13T21:07:23.686Z,2.03
2023-02-13T21:11:26.391Z,1.99
2023-02-13T21:15:28.384Z,1.97
2023-02-13T21:19:31.272Z,1.87
2023-02-13T21:23:33.662Z,1.77
2023-02-13T21:27:35.690Z,1.73
2023-02-13T21:31:44.146Z,1.83
2023-02-13T21:35:46.235Z,1.94
2023-02-13T21:39:48.262Z,2.04
2023-02-13T21:43:51.006Z,2.07
2023-02-13T21:47:56.655Z,2.03
2023-02-13T21:51:58.715Z,2.06
2023-02-13T21:56:03.068Z,2.02
2023-02-13T22:00:09.595Z,1.98
2023-02-13T22:04:14.440Z,1.92
2023-02-13T22:08:16.540Z,1.91
2023-02-13T22:12:18.537Z,1.84
2023-02-13T22:16:20.567Z,1.75
2023-02-13T22:20:22.766Z,1.61
2023-02-13T22:24:24.923Z,1.51
2023-02-13T22:28:27.541Z,1.45
2023-02-13T22:32:29.546Z,1.39
2023-02-13T22:36:33.583Z,1.41
2023-02-13T22:40:36.763Z,1.44
2023-02-13T22:44:38.772Z,1.42
2023-02-13T22:48:42.150Z,1.42
2023-02-13T22:52:44.201Z,1.41
2023-02-13T22:56:46.298Z,1.41
2023-02-13T23:00:48.328Z,1.36
2023-02-13T23:04:50.432Z,1.35
2023-02-13T23:08:53.578Z,1.30
2023-02-13T23:12:55.753Z,1.29
2023-02-13T23:17:16.433Z,1.35
2023-02-13T23:21:19.107Z,1.48
2023-02-13T23:25:21.646Z,1.58
2023-02-13T23:29:24.024Z,1.77
2023-02-13T23:33:26.365Z,1.84
2023-02-13T23:37:28.513Z,1.89
2023-02-13T23:41:30.562Z,1.95
2023-02-13T23:45:32.577Z,1.99
2023-02-13T23:49:34.676Z,2.03
2023-02-13T23:53:37.329Z,2.05
2023-02-13T23:57:39.408Z,2.09
